Barry, Texas
Current Conditions -  °F | °C
As of 2:53 PM on Saturday 20 Dec 2014 (Local Time) from KCRS Reporting Station
Haze Haze  
Wind Chill: 11°   Ceiling: 1100
Heat Index: 11°   Visibility: 6mi
Dew Point:   Wind: 6mph
Humidity: 80%   Direction: 70°ENE
Pressure: 30.19"   Gusts: NA
Location:  32.1°N, 96.64°W
Report Text: KCRS 202053Z AUTO 07005KT 6SM HZ OVC011 11/07 A3019 RMK AO2 SLP224 T01060072 56020
Loading
Personal Weather Stations






























Interactive Weather Map New forecast layout! Learn more

10-Day Weather Forecast

Advertisements
Track Severe Weather on mobile